Check out our new PWSWeather beta!
PWSweather.com
Personal Weather Stations
Station Observations
ANTHEMNP
Anthem North Parkside, Anthem, AZ 85086

Anthem North ParksideAnthem, AZ 85086

Lat: 33.876464, Lon: -112.13861199999997

Elevation: 1930

Station Type: Davis Vantage Vue with Pro 2 console

http://www.azjerry.com/ANPW/wxindex.php

High Low Average
Temperature 95.3°F35.2°C 82.3°F27.9°C 89.2°F31.8°C
Dew Point 69.0°F20.6°C 51.0°F10.6°C 58.4°F14.7°C
Winds 3.7 mph 6.0 kmh Calm Calm 1.0 mph SSE1.6 kmh SSE
Wind Gusts 11.0 mph17.7 kmh -- 4.0 mph6.4 kmh
Humidity 63% 28% 36%
Pressure 29.90 in1012.5 mb 29.76 in1007.8 mb -
Precipitation 0.01 in0.3 mm - -
Hour Temp Dew Point Humidity Winds Wind Gusts Pressure Precip Precip Rate Daily Precip Total
12:00 AM 92.5°F33.6°C 55.0°F12.8°C 28% 0.1 mph SSW0.2 kmh SSW 2.0 mph3.2 kmh 29.77 in1008.1 mb 0.00 in0.0 mm 0.00 in0.0 mm 0.00 in0.0 mm
12:10 AM 91.4°F33.0°C 55.0°F12.8°C 29% 0.8 mph NNE1.3 kmh NNE 2.0 mph3.2 kmh 29.77 in1008.1 mb 0.00 in0.0 mm 0.00 in0.0 mm 0.00 in0.0 mm
12:20 AM 91.1°F32.8°C 55.0°F12.8°C 29% 0.1 mph NNE0.2 kmh NNE 1.0 mph1.6 kmh 29.77 in1008.1 mb 0.00 in0.0 mm 0.00 in0.0 mm 0.00 in0.0 mm
12:30 AM 90.7°F32.6°C 54.0°F12.2°C 29% Calm Calm 1.0 mph1.6 kmh 29.76 in1007.8 mb 0.00 in0.0 mm 0.00 in0.0 mm 0.00 in0.0 mm
12:40 AM 90.2°F32.3°C 55.0°F12.8°C 30% Calm Calm 1.0 mph1.6 kmh 29.76 in1007.8 mb 0.00 in0.0 mm 0.00 in0.0 mm 0.00 in0.0 mm
12:50 AM 89.6°F32.0°C 54.0°F12.2°C 30% Calm Calm 1.0 mph1.6 kmh 29.76 in1007.8 mb 0.00 in0.0 mm 0.00 in0.0 mm 0.00 in0.0 mm
01:00 AM 89.4°F31.9°C 55.0°F12.8°C 31% Calm Calm 1.0 mph1.6 kmh 29.76 in1007.8 mb 0.00 in0.0 mm 0.00 in0.0 mm 0.00 in0.0 mm
01:10 AM 90.0°F32.2°C 55.0°F12.8°C 30% 0.8 mph SE1.3 kmh SE 3.0 mph4.8 kmh 29.76 in1007.8 mb 0.00 in0.0 mm 0.00 in0.0 mm 0.00 in0.0 mm
01:20 AM 89.7°F32.1°C 56.0°F13.3°C 32% 1.5 mph SE2.4 kmh SE 4.0 mph6.4 kmh 29.76 in1007.8 mb 0.00 in0.0 mm 0.00 in0.0 mm 0.00 in0.0 mm
01:30 AM 89.1°F31.7°C 56.0°F13.3°C 33% 0.5 mph ESE0.8 kmh ESE 2.0 mph3.2 kmh 29.76 in1007.8 mb 0.00 in0.0 mm 0.00 in0.0 mm 0.00 in0.0 mm
01:40 AM 88.7°F31.5°C 56.0°F13.3°C 33% 0.6 mph SE1.0 kmh SE 2.0 mph3.2 kmh 29.76 in1007.8 mb 0.00 in0.0 mm 0.00 in0.0 mm 0.00 in0.0 mm
01:50 AM 88.9°F31.6°C 55.0°F12.8°C 32% 1.2 mph SE1.9 kmh SE 3.0 mph4.8 kmh 29.76 in1007.8 mb 0.00 in0.0 mm 0.00 in0.0 mm 0.00 in0.0 mm
02:00 AM 88.6°F31.4°C 56.0°F13.3°C 33% 1.0 mph SE1.6 kmh SE 2.0 mph3.2 kmh 29.77 in1008.1 mb 0.00 in0.0 mm 0.00 in0.0 mm 0.00 in0.0 mm
02:10 AM 88.3°F31.3°C 56.0°F13.3°C 33% 0.5 mph SE0.8 kmh SE 2.0 mph3.2 kmh 29.77 in1008.1 mb 0.00 in0.0 mm 0.00 in0.0 mm 0.00 in0.0 mm
02:20 AM 88.4°F31.3°C 56.0°F13.3°C 33% 1.0 mph SE1.6 kmh SE 4.0 mph6.4 kmh 29.77 in1008.1 mb 0.00 in0.0 mm 0.00 in0.0 mm 0.00 in0.0 mm
02:30 AM 88.3°F31.3°C 56.0°F13.3°C 33% 0.5 mph ESE0.8 kmh ESE 2.0 mph3.2 kmh 29.77 in1008.1 mb 0.00 in0.0 mm 0.00 in0.0 mm 0.00 in0.0 mm
02:40 AM 87.9°F31.1°C 55.0°F12.8°C 33% 0.1 mph ESE0.2 kmh ESE 1.0 mph1.6 kmh 29.77 in1008.1 mb 0.00 in0.0 mm 0.00 in0.0 mm 0.00 in0.0 mm
02:50 AM 86.9°F30.5°C 55.0°F12.8°C 34% Calm Calm -- 29.78 in1008.5 mb 0.00 in0.0 mm 0.00 in0.0 mm 0.00 in0.0 mm
03:00 AM 86.9°F30.5°C 55.0°F12.8°C 34% 0.3 mph SSE0.5 kmh SSE 2.0 mph3.2 kmh 29.78 in1008.5 mb 0.00 in0.0 mm 0.00 in0.0 mm 0.00 in0.0 mm
03:10 AM 87.9°F31.1°C 55.0°F12.8°C 32% 0.9 mph SSE1.4 kmh SSE 7.0 mph11.3 kmh 29.78 in1008.5 mb 0.00 in0.0 mm 0.00 in0.0 mm 0.00 in0.0 mm
03:20 AM 87.7°F30.9°C 54.0°F12.2°C 32% 0.1 mph SSW0.2 kmh SSW 1.0 mph1.6 kmh 29.78 in1008.5 mb 0.00 in0.0 mm 0.00 in0.0 mm 0.00 in0.0 mm
03:30 AM 87.7°F30.9°C 54.0°F12.2°C 32% 0.5 mph SSW0.8 kmh SSW 5.0 mph8.0 kmh 29.78 in1008.5 mb 0.00 in0.0 mm 0.00 in0.0 mm 0.00 in0.0 mm
03:40 AM 87.7°F30.9°C 54.0°F12.2°C 32% 0.6 mph SW1.0 kmh SW 6.0 mph9.7 kmh 29.78 in1008.5 mb 0.00 in0.0 mm 0.00 in0.0 mm 0.00 in0.0 mm
03:50 AM 87.8°F31.0°C 54.0°F12.2°C 31% 0.7 mph SW1.1 kmh SW 3.0 mph4.8 kmh 29.79 in1008.8 mb 0.00 in0.0 mm 0.00 in0.0 mm 0.00 in0.0 mm
04:00 AM 87.5°F30.8°C 54.0°F12.2°C 32% 0.3 mph S0.5 kmh S 2.0 mph3.2 kmh 29.79 in1008.8 mb 0.00 in0.0 mm 0.00 in0.0 mm 0.00 in0.0 mm
04:10 AM 87.3°F30.7°C 54.0°F12.2°C 32% 0.8 mph SW1.3 kmh SW 4.0 mph6.4 kmh 29.80 in1009.1 mb 0.00 in0.0 mm 0.00 in0.0 mm 0.00 in0.0 mm
04:20 AM 87.4°F30.8°C 54.0°F12.2°C 32% 0.7 mph SW1.1 kmh SW 3.0 mph4.8 kmh 29.79 in1008.8 mb 0.00 in0.0 mm 0.00 in0.0 mm 0.00 in0.0 mm
04:30 AM 87.4°F30.8°C 54.0°F12.2°C 32% 1.2 mph SSW1.9 kmh SSW 5.0 mph8.0 kmh 29.80 in1009.1 mb 0.00 in0.0 mm 0.00 in0.0 mm 0.00 in0.0 mm
04:40 AM 87.1°F30.6°C 53.0°F11.7°C 31% 1.5 mph SSW2.4 kmh SSW 6.0 mph9.7 kmh 29.80 in1009.1 mb 0.00 in0.0 mm 0.00 in0.0 mm 0.00 in0.0 mm
04:50 AM 86.9°F30.5°C 53.0°F11.7°C 31% 1.9 mph SW3.1 kmh SW 6.0 mph9.7 kmh 29.81 in1009.5 mb 0.00 in0.0 mm 0.00 in0.0 mm 0.00 in0.0 mm
05:00 AM 86.6°F30.3°C 52.0°F11.1°C 30% 1.4 mph SSE2.3 kmh SSE 5.0 mph8.0 kmh 29.81 in1009.5 mb 0.00 in0.0 mm 0.00 in0.0 mm 0.00 in0.0 mm
05:10 AM 86.5°F30.3°C 51.0°F10.6°C 29% 2.3 mph SSW3.7 kmh SSW 10.0 mph16.1 kmh 29.82 in1009.8 mb 0.00 in0.0 mm 0.00 in0.0 mm 0.00 in0.0 mm
05:20 AM 85.8°F29.9°C 51.0°F10.6°C 30% 0.7 mph SSW1.1 kmh SSW 3.0 mph4.8 kmh 29.82 in1009.8 mb 0.00 in0.0 mm 0.00 in0.0 mm 0.00 in0.0 mm
05:30 AM 85.7°F29.8°C 52.0°F11.1°C 31% 1.0 mph NE1.6 kmh NE 6.0 mph9.7 kmh 29.82 in1009.8 mb 0.00 in0.0 mm 0.00 in0.0 mm 0.00 in0.0 mm
05:40 AM 85.6°F29.8°C 53.0°F11.7°C 33% 3.1 mph SW5.0 kmh SW 10.0 mph16.1 kmh 29.83 in1010.2 mb 0.00 in0.0 mm 0.00 in0.0 mm 0.00 in0.0 mm
05:50 AM 85.4°F29.7°C 53.0°F11.7°C 33% 1.0 mph SSW1.6 kmh SSW 4.0 mph6.4 kmh 29.83 in1010.2 mb 0.00 in0.0 mm 0.00 in0.0 mm 0.00 in0.0 mm
06:00 AM 85.3°F29.6°C 55.0°F12.8°C 35% 0.8 mph SW1.3 kmh SW 3.0 mph4.8 kmh 29.84 in1010.5 mb 0.00 in0.0 mm 0.00 in0.0 mm 0.00 in0.0 mm
06:10 AM 85.0°F29.4°C 54.0°F12.2°C 35% 0.3 mph SSW0.5 kmh SSW 2.0 mph3.2 kmh 29.84 in1010.5 mb 0.00 in0.0 mm 0.00 in0.0 mm 0.00 in0.0 mm
06:20 AM 84.8°F29.3°C 56.0°F13.3°C 37% 0.3 mph SSW0.5 kmh SSW 3.0 mph4.8 kmh 29.84 in1010.5 mb 0.00 in0.0 mm 0.00 in0.0 mm 0.00 in0.0 mm
06:30 AM 84.8°F29.3°C 56.0°F13.3°C 37% 1.0 mph SW1.6 kmh SW 4.0 mph6.4 kmh 29.84 in1010.5 mb 0.00 in0.0 mm 0.00 in0.0 mm 0.00 in0.0 mm
06:40 AM 84.9°F29.4°C 56.0°F13.3°C 37% 1.1 mph SW1.8 kmh SW 4.0 mph6.4 kmh 29.85 in1010.8 mb 0.00 in0.0 mm 0.00 in0.0 mm 0.00 in0.0 mm
06:50 AM 84.9°F29.4°C 57.0°F13.9°C 38% 1.3 mph SW2.1 kmh SW 3.0 mph4.8 kmh 29.85 in1010.8 mb 0.00 in0.0 mm 0.00 in0.0 mm 0.00 in0.0 mm
07:00 AM 84.7°F29.3°C 56.0°F13.3°C 38% 0.5 mph SE0.8 kmh SE 5.0 mph8.0 kmh 29.86 in1011.2 mb 0.00 in0.0 mm 0.00 in0.0 mm 0.00 in0.0 mm
07:10 AM 84.8°F29.3°C 57.0°F13.9°C 39% Calm Calm 1.0 mph1.6 kmh 29.86 in1011.2 mb 0.00 in0.0 mm 0.00 in0.0 mm 0.00 in0.0 mm
07:20 AM 84.8°F29.3°C 58.0°F14.4°C 40% 0.2 mph ENE0.3 kmh ENE 2.0 mph3.2 kmh 29.86 in1011.2 mb 0.00 in0.0 mm 0.00 in0.0 mm 0.00 in0.0 mm
07:30 AM 85.2°F29.6°C 58.0°F14.4°C 40% 0.2 mph SSE0.3 kmh SSE 2.0 mph3.2 kmh 29.86 in1011.2 mb 0.00 in0.0 mm 0.00 in0.0 mm 0.00 in0.0 mm
07:40 AM 86.3°F30.2°C 61.0°F16.1°C 43% 0.5 mph SE0.8 kmh SE 3.0 mph4.8 kmh 29.87 in1011.5 mb 0.00 in0.0 mm 0.00 in0.0 mm 0.00 in0.0 mm
07:50 AM 86.9°F30.5°C 60.0°F15.6°C 40% 1.4 mph SE2.3 kmh SE 5.0 mph8.0 kmh 29.88 in1011.9 mb 0.00 in0.0 mm 0.00 in0.0 mm 0.00 in0.0 mm
08:00 AM 85.7°F29.8°C 61.0°F16.1°C 44% 3.1 mph SSE5.0 kmh SSE 10.0 mph16.1 kmh 29.88 in1011.9 mb 0.00 in0.0 mm 0.00 in0.0 mm 0.00 in0.0 mm
08:10 AM 86.2°F30.1°C 60.0°F15.6°C 42% 1.5 mph SE2.4 kmh SE 6.0 mph9.7 kmh 29.89 in1012.2 mb 0.00 in0.0 mm 0.00 in0.0 mm 0.00 in0.0 mm
08:20 AM 89.1°F31.7°C 61.0°F16.1°C 39% 1.1 mph SE1.8 kmh SE 4.0 mph6.4 kmh 29.89 in1012.2 mb 0.00 in0.0 mm 0.00 in0.0 mm 0.00 in0.0 mm
08:30 AM 88.8°F31.6°C 61.0°F16.1°C 39% 2.0 mph S3.2 kmh S 5.0 mph8.0 kmh 29.89 in1012.2 mb 0.00 in0.0 mm 0.00 in0.0 mm 0.00 in0.0 mm
08:40 AM 89.2°F31.8°C 60.0°F15.6°C 38% 1.0 mph SSE1.6 kmh SSE 3.0 mph4.8 kmh 29.89 in1012.2 mb 0.00 in0.0 mm 0.00 in0.0 mm 0.00 in0.0 mm
08:50 AM 89.5°F31.9°C 60.0°F15.6°C 37% 0.7 mph SSW1.1 kmh SSW 2.0 mph3.2 kmh 29.89 in1012.2 mb 0.00 in0.0 mm 0.00 in0.0 mm 0.00 in0.0 mm
09:00 AM 89.9°F32.2°C 61.0°F16.1°C 38% 0.9 mph S1.4 kmh S 3.0 mph4.8 kmh 29.89 in1012.2 mb 0.00 in0.0 mm 0.00 in0.0 mm 0.00 in0.0 mm
09:10 AM 89.0°F31.7°C 62.0°F16.7°C 41% 1.8 mph SW2.9 kmh SW 4.0 mph6.4 kmh 29.89 in1012.2 mb 0.00 in0.0 mm 0.00 in0.0 mm 0.00 in0.0 mm
09:20 AM 88.6°F31.4°C 65.0°F18.3°C 46% 2.5 mph SSE4.0 kmh SSE 6.0 mph9.7 kmh 29.89 in1012.2 mb 0.00 in0.0 mm 0.00 in0.0 mm 0.00 in0.0 mm
09:30 AM 88.0°F31.1°C 66.0°F18.9°C 48% 2.6 mph SSW4.2 kmh SSW 8.0 mph12.9 kmh 29.89 in1012.2 mb 0.00 in0.0 mm 0.00 in0.0 mm 0.00 in0.0 mm
09:40 AM 88.8°F31.6°C 66.0°F18.9°C 47% 2.0 mph SW3.2 kmh SW 7.0 mph11.3 kmh 29.89 in1012.2 mb 0.00 in0.0 mm 0.00 in0.0 mm 0.00 in0.0 mm
09:50 AM 90.3°F32.4°C 66.0°F18.9°C 44% 1.3 mph WSW2.1 kmh WSW 4.0 mph6.4 kmh 29.89 in1012.2 mb 0.00 in0.0 mm 0.00 in0.0 mm 0.00 in0.0 mm
10:00 AM 89.6°F32.0°C 65.0°F18.3°C 44% 1.8 mph SW2.9 kmh SW 5.0 mph8.0 kmh 29.90 in1012.5 mb 0.00 in0.0 mm 0.00 in0.0 mm 0.00 in0.0 mm
10:10 AM 90.3°F32.4°C 64.0°F17.8°C 41% 1.8 mph S2.9 kmh S 5.0 mph8.0 kmh 29.90 in1012.5 mb 0.00 in0.0 mm 0.00 in0.0 mm 0.00 in0.0 mm
10:20 AM 91.3°F32.9°C 63.0°F17.2°C 39% 1.3 mph NNE2.1 kmh NNE 3.0 mph4.8 kmh 29.90 in1012.5 mb 0.00 in0.0 mm 0.00 in0.0 mm 0.00 in0.0 mm
10:30 AM 91.0°F32.8°C 63.0°F17.2°C 39% 1.5 mph SE2.4 kmh SE 4.0 mph6.4 kmh 29.89 in1012.2 mb 0.00 in0.0 mm 0.00 in0.0 mm 0.00 in0.0 mm
10:40 AM 91.1°F32.8°C 63.0°F17.2°C 39% 1.4 mph SW2.3 kmh SW 5.0 mph8.0 kmh 29.89 in1012.2 mb 0.00 in0.0 mm 0.00 in0.0 mm 0.00 in0.0 mm
10:50 AM 90.6°F32.6°C 63.0°F17.2°C 40% 2.9 mph SE4.7 kmh SE 6.0 mph9.7 kmh 29.89 in1012.2 mb 0.00 in0.0 mm 0.00 in0.0 mm 0.00 in0.0 mm
11:00 AM 90.9°F32.7°C 63.0°F17.2°C 39% 2.3 mph SW3.7 kmh SW 6.0 mph9.7 kmh 29.89 in1012.2 mb 0.00 in0.0 mm 0.00 in0.0 mm 0.00 in0.0 mm
11:10 AM 90.3°F32.4°C 64.0°F17.8°C 41% 2.2 mph WSW3.5 kmh WSW 9.0 mph14.5 kmh 29.89 in1012.2 mb 0.00 in0.0 mm 0.00 in0.0 mm 0.00 in0.0 mm
11:20 AM 86.7°F30.4°C 65.0°F18.3°C 48% 3.7 mph SSE6.0 kmh SSE 11.0 mph17.7 kmh 29.89 in1012.2 mb 0.00 in0.0 mm 0.00 in0.0 mm 0.00 in0.0 mm
11:30 AM 82.4°F28.0°C 69.0°F20.6°C 63% 2.3 mph NNE3.7 kmh NNE 11.0 mph17.7 kmh 29.89 in1012.2 mb 0.00 in0.0 mm 0.00 in0.0 mm 0.01 in0.3 mm
11:40 AM 82.3°F27.9°C 68.0°F20.0°C 63% Calm Calm 1.0 mph1.6 kmh 29.89 in1012.2 mb 0.00 in0.0 mm 0.00 in0.0 mm 0.01 in0.3 mm
11:50 AM 83.8°F28.8°C 68.0°F20.0°C 59% 0.2 mph N0.3 kmh N 2.0 mph3.2 kmh 29.89 in1012.2 mb 0.00 in0.0 mm 0.00 in0.0 mm 0.01 in0.3 mm
12:00 PM 85.4°F29.7°C 67.0°F19.4°C 54% Calm Calm 1.0 mph1.6 kmh 29.88 in1011.9 mb 0.00 in0.0 mm 0.00 in0.0 mm 0.01 in0.3 mm
12:10 PM 86.3°F30.2°C 67.0°F19.4°C 52% 0.1 mph N0.2 kmh N 2.0 mph3.2 kmh 29.88 in1011.9 mb 0.00 in0.0 mm 0.00 in0.0 mm 0.01 in0.3 mm
12:20 PM 87.5°F30.8°C 64.0°F17.8°C 46% 0.1 mph SE0.2 kmh SE 1.0 mph1.6 kmh 29.88 in1011.9 mb 0.00 in0.0 mm 0.00 in0.0 mm 0.01 in0.3 mm
12:30 PM 88.4°F31.3°C 64.0°F17.8°C 45% 0.5 mph NNE0.8 kmh NNE 2.0 mph3.2 kmh 29.88 in1011.9 mb 0.00 in0.0 mm 0.00 in0.0 mm 0.01 in0.3 mm
12:40 PM 89.5°F31.9°C 64.0°F17.8°C 43% 0.5 mph SSW0.8 kmh SSW 4.0 mph6.4 kmh 29.88 in1011.9 mb 0.00 in0.0 mm 0.00 in0.0 mm 0.01 in0.3 mm
12:50 PM 90.1°F32.3°C 63.0°F17.2°C 40% 0.5 mph SE0.8 kmh SE 4.0 mph6.4 kmh 29.87 in1011.5 mb 0.00 in0.0 mm 0.00 in0.0 mm 0.01 in0.3 mm
01:00 PM 90.4°F32.4°C 64.0°F17.8°C 41% 0.2 mph SSW0.3 kmh SSW 2.0 mph3.2 kmh 29.87 in1011.5 mb 0.00 in0.0 mm 0.00 in0.0 mm 0.01 in0.3 mm
01:10 PM 91.0°F32.8°C 64.0°F17.8°C 40% 0.3 mph SW0.5 kmh SW 3.0 mph4.8 kmh 29.87 in1011.5 mb 0.00 in0.0 mm 0.00 in0.0 mm 0.01 in0.3 mm
01:20 PM 91.7°F33.2°C 63.0°F17.2°C 39% 1.0 mph S1.6 kmh S 4.0 mph6.4 kmh 29.87 in1011.5 mb 0.00 in0.0 mm 0.00 in0.0 mm 0.01 in0.3 mm
01:30 PM 92.1°F33.4°C 63.0°F17.2°C 38% 2.0 mph SSW3.2 kmh SSW 6.0 mph9.7 kmh 29.87 in1011.5 mb 0.00 in0.0 mm 0.00 in0.0 mm 0.01 in0.3 mm
01:40 PM 93.2°F34.0°C 64.0°F17.8°C 38% 0.3 mph SW0.5 kmh SW 2.0 mph3.2 kmh 29.86 in1011.2 mb 0.00 in0.0 mm 0.00 in0.0 mm 0.01 in0.3 mm
01:50 PM 93.2°F34.0°C 62.0°F16.7°C 35% 2.2 mph E3.5 kmh E 6.0 mph9.7 kmh 29.86 in1011.2 mb 0.00 in0.0 mm 0.00 in0.0 mm 0.01 in0.3 mm
02:00 PM 93.8°F34.3°C 62.0°F16.7°C 35% 0.6 mph S1.0 kmh S 4.0 mph6.4 kmh 29.86 in1011.2 mb 0.00 in0.0 mm 0.00 in0.0 mm 0.01 in0.3 mm
02:10 PM 94.0°F34.4°C 61.0°F16.1°C 33% 2.2 mph SW3.5 kmh SW 9.0 mph14.5 kmh 29.86 in1011.2 mb 0.00 in0.0 mm 0.00 in0.0 mm 0.01 in0.3 mm
02:20 PM 93.6°F34.2°C 61.0°F16.1°C 34% 2.4 mph N3.9 kmh N 6.0 mph9.7 kmh 29.85 in1010.8 mb 0.00 in0.0 mm 0.00 in0.0 mm 0.01 in0.3 mm
02:30 PM 94.1°F34.5°C 60.0°F15.6°C 32% 2.5 mph SSW4.0 kmh SSW 8.0 mph12.9 kmh 29.85 in1010.8 mb 0.00 in0.0 mm 0.00 in0.0 mm 0.01 in0.3 mm
02:40 PM 94.7°F34.8°C 61.0°F16.1°C 32% 2.8 mph SW4.5 kmh SW 8.0 mph12.9 kmh 29.84 in1010.5 mb 0.00 in0.0 mm 0.00 in0.0 mm 0.01 in0.3 mm
02:50 PM 95.0°F35.0°C 61.0°F16.1°C 32% 3.3 mph SW5.3 kmh SW 8.0 mph12.9 kmh 29.83 in1010.2 mb 0.00 in0.0 mm 0.00 in0.0 mm 0.01 in0.3 mm
03:00 PM 94.8°F34.9°C 60.0°F15.6°C 31% 2.5 mph SSW4.0 kmh SSW 7.0 mph11.3 kmh 29.83 in1010.2 mb 0.00 in0.0 mm 0.00 in0.0 mm 0.01 in0.3 mm
03:10 PM 94.4°F34.7°C 60.0°F15.6°C 32% 2.3 mph SW3.7 kmh SW 6.0 mph9.7 kmh 29.83 in1010.2 mb 0.00 in0.0 mm 0.00 in0.0 mm 0.01 in0.3 mm
03:20 PM 94.4°F34.7°C 59.0°F15.0°C 31% 2.5 mph S4.0 kmh S 6.0 mph9.7 kmh 29.82 in1009.8 mb 0.00 in0.0 mm 0.00 in0.0 mm 0.01 in0.3 mm
03:30 PM 94.2°F34.6°C 59.0°F15.0°C 31% 2.3 mph SW3.7 kmh SW 8.0 mph12.9 kmh 29.82 in1009.8 mb 0.00 in0.0 mm 0.00 in0.0 mm 0.01 in0.3 mm
03:40 PM 94.4°F34.7°C 59.0°F15.0°C 31% 1.7 mph SE2.7 kmh SE 4.0 mph6.4 kmh 29.82 in1009.8 mb 0.00 in0.0 mm 0.00 in0.0 mm 0.01 in0.3 mm
03:50 PM 94.3°F34.6°C 59.0°F15.0°C 31% 2.6 mph SSW4.2 kmh SSW 7.0 mph11.3 kmh 29.82 in1009.8 mb 0.00 in0.0 mm 0.00 in0.0 mm 0.01 in0.3 mm
04:00 PM 94.0°F34.4°C 59.0°F15.0°C 31% 2.5 mph SSW4.0 kmh SSW 10.0 mph16.1 kmh 29.81 in1009.5 mb 0.00 in0.0 mm 0.00 in0.0 mm 0.01 in0.3 mm
04:10 PM 94.0°F34.4°C 58.0°F14.4°C 30% 3.0 mph S4.8 kmh S 8.0 mph12.9 kmh 29.81 in1009.5 mb 0.00 in0.0 mm 0.00 in0.0 mm 0.01 in0.3 mm
04:20 PM 94.8°F34.9°C 59.0°F15.0°C 30% 1.8 mph SW2.9 kmh SW 6.0 mph9.7 kmh 29.81 in1009.5 mb 0.00 in0.0 mm 0.00 in0.0 mm 0.01 in0.3 mm
04:30 PM 94.5°F34.7°C 59.0°F15.0°C 30% 3.0 mph E4.8 kmh E 8.0 mph12.9 kmh 29.81 in1009.5 mb 0.00 in0.0 mm 0.00 in0.0 mm 0.01 in0.3 mm
04:40 PM 94.4°F34.7°C 59.0°F15.0°C 30% 1.3 mph S2.1 kmh S 4.0 mph6.4 kmh 29.80 in1009.1 mb 0.00 in0.0 mm 0.00 in0.0 mm 0.01 in0.3 mm
04:50 PM 94.9°F34.9°C 59.0°F15.0°C 30% 2.0 mph SSW3.2 kmh SSW 6.0 mph9.7 kmh 29.80 in1009.1 mb 0.00 in0.0 mm 0.00 in0.0 mm 0.01 in0.3 mm
05:00 PM 95.3°F35.2°C 58.0°F14.4°C 29% 1.0 mph E1.6 kmh E 3.0 mph4.8 kmh 29.80 in1009.1 mb 0.00 in0.0 mm 0.00 in0.0 mm 0.01 in0.3 mm
05:10 PM 94.6°F34.8°C 58.0°F14.4°C 29% 1.3 mph SSW2.1 kmh SSW 5.0 mph8.0 kmh 29.80 in1009.1 mb 0.00 in0.0 mm 0.00 in0.0 mm 0.01 in0.3 mm
05:20 PM 94.3°F34.6°C 58.0°F14.4°C 30% 0.4 mph S0.6 kmh S 2.0 mph3.2 kmh 29.79 in1008.8 mb 0.00 in0.0 mm 0.00 in0.0 mm 0.01 in0.3 mm
05:30 PM 94.3°F34.6°C 58.0°F14.4°C 30% 1.8 mph SE2.9 kmh SE 4.0 mph6.4 kmh 29.79 in1008.8 mb 0.00 in0.0 mm 0.00 in0.0 mm 0.01 in0.3 mm
05:40 PM 94.0°F34.4°C 58.0°F14.4°C 30% 0.2 mph S0.3 kmh S 3.0 mph4.8 kmh 29.79 in1008.8 mb 0.00 in0.0 mm 0.00 in0.0 mm 0.01 in0.3 mm
05:50 PM 93.8°F34.3°C 58.0°F14.4°C 30% 0.3 mph SW0.5 kmh SW 2.0 mph3.2 kmh 29.79 in1008.8 mb 0.00 in0.0 mm 0.00 in0.0 mm 0.01 in0.3 mm
06:00 PM 93.2°F34.0°C 57.0°F13.9°C 30% 0.7 mph NE1.1 kmh NE 3.0 mph4.8 kmh 29.78 in1008.5 mb 0.00 in0.0 mm 0.00 in0.0 mm 0.01 in0.3 mm
06:10 PM 92.6°F33.7°C 58.0°F14.4°C 31% Calm Calm -- 29.78 in1008.5 mb 0.00 in0.0 mm 0.00 in0.0 mm 0.01 in0.3 mm
06:20 PM 92.1°F33.4°C 57.0°F13.9°C 31% 0.1 mph SSW0.2 kmh SSW 2.0 mph3.2 kmh 29.78 in1008.5 mb 0.00 in0.0 mm 0.00 in0.0 mm 0.01 in0.3 mm
06:30 PM 92.3°F33.5°C 58.0°F14.4°C 31% 0.1 mph S0.2 kmh S 2.0 mph3.2 kmh 29.78 in1008.5 mb 0.00 in0.0 mm 0.00 in0.0 mm 0.01 in0.3 mm
06:40 PM 92.1°F33.4°C 57.0°F13.9°C 31% 0.1 mph SSW0.2 kmh SSW 2.0 mph3.2 kmh 29.79 in1008.8 mb 0.00 in0.0 mm 0.00 in0.0 mm 0.01 in0.3 mm
06:50 PM 91.8°F33.2°C 57.0°F13.9°C 31% Calm Calm 1.0 mph1.6 kmh 29.79 in1008.8 mb 0.00 in0.0 mm 0.00 in0.0 mm 0.01 in0.3 mm
07:00 PM 91.5°F33.1°C 57.0°F13.9°C 31% Calm Calm 1.0 mph1.6 kmh 29.80 in1009.1 mb 0.00 in0.0 mm 0.00 in0.0 mm 0.01 in0.3 mm
07:10 PM 90.8°F32.7°C 57.0°F13.9°C 32% Calm Calm -- 29.80 in1009.1 mb 0.00 in0.0 mm 0.00 in0.0 mm 0.01 in0.3 mm
07:20 PM 90.7°F32.6°C 57.0°F13.9°C 32% 0.1 mph SSW0.2 kmh SSW 1.0 mph1.6 kmh 29.80 in1009.1 mb 0.00 in0.0 mm 0.00 in0.0 mm 0.01 in0.3 mm
07:30 PM 90.2°F32.3°C 57.0°F13.9°C 32% Calm Calm -- 29.80 in1009.1 mb 0.00 in0.0 mm 0.00 in0.0 mm 0.01 in0.3 mm
07:40 PM 89.9°F32.2°C 56.0°F13.3°C 32% Calm Calm -- 29.80 in1009.1 mb 0.00 in0.0 mm 0.00 in0.0 mm 0.01 in0.3 mm
07:50 PM 89.7°F32.1°C 57.0°F13.9°C 33% Calm Calm -- 29.80 in1009.1 mb 0.00 in0.0 mm 0.00 in0.0 mm 0.01 in0.3 mm
08:00 PM 88.9°F31.6°C 56.0°F13.3°C 33% Calm Calm -- 29.81 in1009.5 mb 0.00 in0.0 mm 0.00 in0.0 mm 0.01 in0.3 mm
08:10 PM 88.1°F31.2°C 57.0°F13.9°C 35% Calm Calm -- 29.81 in1009.5 mb 0.00 in0.0 mm 0.00 in0.0 mm 0.01 in0.3 mm
08:20 PM 88.5°F31.4°C 57.0°F13.9°C 34% 0.3 mph SSW0.5 kmh SSW 1.0 mph1.6 kmh 29.81 in1009.5 mb 0.00 in0.0 mm 0.00 in0.0 mm 0.01 in0.3 mm
08:30 PM 88.4°F31.3°C 57.0°F13.9°C 34% 0.1 mph SSW0.2 kmh SSW 1.0 mph1.6 kmh 29.81 in1009.5 mb 0.00 in0.0 mm 0.00 in0.0 mm 0.01 in0.3 mm
08:40 PM 88.3°F31.3°C 57.0°F13.9°C 34% Calm Calm 1.0 mph1.6 kmh 29.81 in1009.5 mb 0.00 in0.0 mm 0.00 in0.0 mm 0.01 in0.3 mm
08:50 PM 88.2°F31.2°C 56.0°F13.3°C 34% Calm Calm -- 29.82 in1009.8 mb 0.00 in0.0 mm 0.00 in0.0 mm 0.01 in0.3 mm
09:00 PM 88.1°F31.2°C 56.0°F13.3°C 34% Calm Calm -- 29.82 in1009.8 mb 0.00 in0.0 mm 0.00 in0.0 mm 0.01 in0.3 mm
09:10 PM 87.7°F30.9°C 57.0°F13.9°C 35% Calm Calm -- 29.82 in1009.8 mb 0.00 in0.0 mm 0.00 in0.0 mm 0.01 in0.3 mm
09:20 PM 87.4°F30.8°C 57.0°F13.9°C 35% 0.8 mph N1.3 kmh N 3.0 mph4.8 kmh 29.82 in1009.8 mb 0.00 in0.0 mm 0.00 in0.0 mm 0.01 in0.3 mm
09:30 PM 87.4°F30.8°C 57.0°F13.9°C 35% 0.1 mph E0.2 kmh E 2.0 mph3.2 kmh 29.82 in1009.8 mb 0.00 in0.0 mm 0.00 in0.0 mm 0.01 in0.3 mm
09:40 PM 87.6°F30.9°C 57.0°F13.9°C 35% 0.9 mph NNE1.4 kmh NNE 2.0 mph3.2 kmh 29.82 in1009.8 mb 0.00 in0.0 mm 0.00 in0.0 mm 0.01 in0.3 mm
09:50 PM 87.0°F30.6°C 57.0°F13.9°C 36% 0.2 mph NNE0.3 kmh NNE 2.0 mph3.2 kmh 29.82 in1009.8 mb 0.00 in0.0 mm 0.00 in0.0 mm 0.01 in0.3 mm
10:00 PM 86.3°F30.2°C 57.0°F13.9°C 37% Calm Calm 1.0 mph1.6 kmh 29.82 in1009.8 mb 0.00 in0.0 mm 0.00 in0.0 mm 0.01 in0.3 mm
10:10 PM 85.9°F29.9°C 57.0°F13.9°C 37% 0.3 mph NNE0.5 kmh NNE 2.0 mph3.2 kmh 29.82 in1009.8 mb 0.00 in0.0 mm 0.00 in0.0 mm 0.01 in0.3 mm
10:20 PM 86.2°F30.1°C 56.0°F13.3°C 36% 1.9 mph N3.1 kmh N 4.0 mph6.4 kmh 29.82 in1009.8 mb 0.00 in0.0 mm 0.00 in0.0 mm 0.01 in0.3 mm
10:30 PM 86.0°F30.0°C 57.0°F13.9°C 37% 1.1 mph NE1.8 kmh NE 3.0 mph4.8 kmh 29.82 in1009.8 mb 0.00 in0.0 mm 0.00 in0.0 mm 0.01 in0.3 mm
10:40 PM 85.6°F29.8°C 56.0°F13.3°C 37% 1.6 mph NNE2.6 kmh NNE 3.0 mph4.8 kmh 29.82 in1009.8 mb 0.00 in0.0 mm 0.00 in0.0 mm 0.01 in0.3 mm
10:50 PM 85.7°F29.8°C 57.0°F13.9°C 37% 1.7 mph NNE2.7 kmh NNE 4.0 mph6.4 kmh 29.82 in1009.8 mb 0.00 in0.0 mm 0.00 in0.0 mm 0.01 in0.3 mm
11:00 PM 85.7°F29.8°C 57.0°F13.9°C 37% 2.0 mph N3.2 kmh N 6.0 mph9.7 kmh 29.82 in1009.8 mb 0.00 in0.0 mm 0.00 in0.0 mm 0.01 in0.3 mm
11:10 PM 86.0°F30.0°C 57.0°F13.9°C 37% 2.0 mph NE3.2 kmh NE 5.0 mph8.0 kmh 29.82 in1009.8 mb 0.00 in0.0 mm 0.00 in0.0 mm 0.01 in0.3 mm
11:20 PM 85.4°F29.7°C 57.0°F13.9°C 38% 1.3 mph N2.1 kmh N 3.0 mph4.8 kmh 29.82 in1009.8 mb 0.00 in0.0 mm 0.00 in0.0 mm 0.01 in0.3 mm
11:30 PM 85.5°F29.7°C 57.0°F13.9°C 38% 1.2 mph NE1.9 kmh NE 2.0 mph3.2 kmh 29.81 in1009.5 mb 0.00 in0.0 mm 0.00 in0.0 mm 0.01 in0.3 mm
11:40 PM 85.5°F29.7°C 57.0°F13.9°C 38% 1.5 mph NNE2.4 kmh NNE 3.0 mph4.8 kmh 29.81 in1009.5 mb 0.00 in0.0 mm 0.00 in0.0 mm 0.01 in0.3 mm
11:50 PM 85.3°F29.6°C 57.0°F13.9°C 38% 2.8 mph NE4.5 kmh NE 7.0 mph11.3 kmh 29.81 in1009.5 mb 0.00 in0.0 mm 0.00 in0.0 mm 0.01 in0.3 mm